WIPP

Sultan Mahmud Badaruddin II Airport

Palembang-Sumatra Island, Indonesia
TAF WIPP 182300Z 1900/1924 28007KT 9999 SCT012 TEMPO 1913/1917 5000 RA BKN010 FEW012CB TEMPO 1920/1924 06003KT 3000 BR
Issued Valid From Valid To
Dec-18 @ 23:00 UTC
(58 minutes ago)
Dec-19 @ 00:00 UTC
(in 2 minutes)
Dec-20 @ 00:00 UTC
(in 24 hours)
Dec-19 @ 00:00 to Dec-20 @ 00:00
TAF WIPP 182300Z 1900/1924 28007KT 9999 SCT012
Wind Visibility Clouds
280° at 7 knots 10,000+ meters
  • Scattered at 1,200' AGL
Temporary Dec-19 @ 13:00 to Dec-19 @ 17:00
TEMPO 1913/1917 5000 RA BKN010 FEW012CB
Visibility Clouds Conditions
5,005 meters
  • Broken at 1,000' AGL
  • Few at 1,200' AGL
  • Rain
Temporary Dec-19 @ 20:00 to Dec-20 @ 00:00
TEMPO 1920/1924 06003KT 3000 BR
Wind Visibility Conditions
60° at 3 knots 2,993 meters
  • Mist
TAF WIPP 182300Z 1900/1924 28007KT 9999 SCT012 TEMPO 1913/1917 5000 RA BKN010 FEW012CB TEMPO 1920/1924 06003KT 3000 BR
Issued Dec-18 @ 23:00 UTC
(58 minutes ago)
Valid From Dec-19 @ 00:00 UTC
(in 2 minutes)
Valid To Dec-20 @ 00:00 UTC
(in 24 hours)
Dec-19 @ 00:00 - Dec-20 @ 00:00
Wind Visibility
280° at 7 knots 10,000+ meters
Clouds
  • Scattered at 1,200' AGL
Temporary Dec-19 @ 13:00 - Dec-19 @ 17:00
Clouds
  • Broken at 1,000' AGL
  • Few at 1,200' AGL
Conditions
  • Rain
Temporary Dec-19 @ 20:00 - Dec-20 @ 00:00
Wind Visibility
60° at 3 knots 2,993 meters
Conditions
  • Mist